Time;durP1;ratioP1;P1;durP2;ratioP2;P2;SDS_P1;SDS_P2;PMS_P1;PMS_P2;Temp;Humidity;BMP_temperature;BMP_pressure;BME280_temperature;BME280_humidity;BME280_pressure;Samples;Min_cycle;Max_cycle;Signal;HPM_P1;HPM_P2
2021/01/01 00:01:14;;;;;;;30.05;6.47;;;;;;;-0.44;100.00;99187.63;5013394;28;20053;-78
2021/01/01 00:04:18;;;;;;;24.42;6.82;;;;;;;-0.44;100.00;99186.84;5013543;28;20053;-78
2021/01/01 00:07:21;;;;;;;16.83;3.60;;;;;;;-0.43;100.00;99204.78;5013282;28;20397;-78
2021/01/01 00:10:25;;;;;;;17.30;2.90;;;;;;;-0.44;100.00;99197.78;5013426;28;20057;-77
2021/01/01 00:13:28;;;;;;;14.93;4.07;;;;;;;-0.44;100.00;99201.31;5012347;28;20057;-79
2021/01/01 00:16:31;;;;;;;4.82;3.35;;;;;;;-0.43;100.00;99200.09;5013310;28;20044;-79
2021/01/01 00:19:34;;;;;;;5.47;2.17;;;;;;;-0.43;100.00;99205.56;5013273;28;20509;-78
2021/01/01 00:22:40;;;;;;;12.50;2.83;;;;;;;-0.46;100.00;99206.44;5012596;28;20052;-79
2021/01/01 00:25:44;;;;;;;20.92;2.42;;;;;;;-0.46;100.00;99197.44;5013276;28;20165;-79
2021/01/01 00:28:47;;;;;;;7.70;2.35;;;;;;;-0.49;100.00;99196.31;5037709;28;20060;-80
2021/01/01 00:31:50;;;;;;;8.10;2.78;;;;;;;-0.51;100.00;99197.91;5025815;28;20056;-79
2021/01/01 00:34:54;;;;;;;13.02;3.28;;;;;;;-0.53;100.00;99206.53;5040487;28;20044;-79
2021/01/01 00:37:57;;;;;;;6.07;2.33;;;;;;;-0.52;100.00;99207.31;5041272;28;20069;-79
2021/01/01 00:41:01;;;;;;;18.23;3.92;;;;;;;-0.53;100.00;99206.53;5045458;28;20063;-79
2021/01/01 00:44:04;;;;;;;6.22;2.50;;;;;;;-0.52;100.00;99213.53;5052115;28;20055;-78
2021/01/01 00:47:10;;;;;;;11.60;2.80;;;;;;;-0.55;100.00;99199.94;5043751;28;20060;-79
2021/01/01 00:50:14;;;;;;;10.10;3.80;;;;;;;-0.58;100.00;99203.50;5032486;28;20393;-78
2021/01/01 00:53:17;;;;;;;8.13;1.70;;;;;;;-0.61;100.00;99210.59;5032555;28;20500;-78
2021/01/01 00:56:22;;;;;;;6.97;2.50;;;;;;;-0.61;100.00;99209.81;5031944;28;20053;-78
2021/01/01 00:59:27;;;;;;;8.48;3.83;;;;;;;-0.63;100.00;99212.97;5032634;28;20065;-78
2021/01/01 01:02:31;;;;;;;6.45;4.55;;;;;;;-0.65;100.00;99215.31;5031991;28;20056;-78
2021/01/01 01:05:34;;;;;;;12.43;3.03;;;;;;;-0.65;100.00;99204.38;5019940;28;20504;-79
2021/01/01 01:08:37;;;;;;;8.40;2.55;;;;;;;-0.66;100.00;99219.25;5032129;28;20076;-78
2021/01/01 01:11:41;;;;;;;4.47;3.20;;;;;;;-0.69;100.00;99224.78;5032384;28;20048;-78
2021/01/01 01:14:44;;;;;;;11.98;3.08;;;;;;;-0.73;100.00;99232.25;5020032;28;21294;-79
2021/01/01 01:17:48;;;;;;;16.05;3.55;;;;;;;-0.73;100.00;99240.47;5020082;28;20060;-78
2021/01/01 01:20:51;;;;;;;6.97;2.35;;;;;;;-0.74;100.00;99228.78;5032955;28;20100;-78
2021/01/01 01:23:55;;;;;;;7.70;2.20;;;;;;;-0.75;100.00;99227.22;5032836;28;20057;-78
2021/01/01 01:26:58;;;;;;;4.45;2.33;;;;;;;-0.77;100.00;99224.13;5034202;28;20068;-79
2021/01/01 01:30:04;;;;;;;18.05;3.50;;;;;;;-0.80;100.00;99220.25;5035677;28;20049;-79
2021/01/01 01:33:08;;;;;;;6.43;1.40;;;;;;;-0.79;100.00;99231.97;5031330;28;20068;-79
2021/01/01 01:36:13;;;;;;;7.75;3.28;;;;;;;-0.77;100.00;99233.09;5019464;28;20041;-79
2021/01/01 01:39:16;;;;;;;13.85;2.63;;;;;;;-0.79;100.00;99237.44;5031332;28;20052;-79
2021/01/01 01:42:20;;;;;;;6.50;2.63;;;;;;;-0.77;100.00;99235.06;5031385;28;20064;-79
2021/01/01 01:45:23;;;;;;;5.97;2.05;;;;;;;-0.76;100.00;99242.09;5019416;28;20060;-79
2021/01/01 01:48:37;;;;;;;10.93;2.38;;;;;;;-0.77;100.00;99232.31;5031387;28;20056;-79
2021/01/01 01:51:45;;;;;;;23.52;2.65;;;;;;;-0.77;100.00;99232.31;5031457;28;20072;-79
2021/01/01 01:54:50;;;;;;;10.93;3.38;;;;;;;-0.77;100.00;99238.56;5031513;28;20065;-79
2021/01/01 01:57:55;;;;;;;22.42;3.78;;;;;;;-0.75;100.00;99240.88;5031063;28;20064;-79
2021/01/01 02:00:59;;;;;;;9.20;3.30;;;;;;;-0.72;100.00;99253.72;5031720;28;20068;-79
2021/01/01 02:04:03;;;;;;;20.80;3.28;;;;;;;-0.72;100.00;99261.94;5031850;28;20049;-79
2021/01/01 02:07:06;;;;;;;4.90;2.08;;;;;;;-0.71;100.00;99263.47;5031525;28;20061;-79
2021/01/01 02:10:10;;;;;;;5.57;1.98;;;;;;;-0.70;100.00;99267.75;5031664;28;20504;-79
2021/01/01 02:13:14;;;;;;;8.55;1.65;;;;;;;-0.68;100.00;99270.84;5031482;28;20048;-79
2021/01/01 02:16:20;;;;;;;8.20;3.35;;;;;;;-0.67;100.00;99258.72;5031511;28;20052;-79
2021/01/01 02:19:23;;;;;;;33.75;4.50;;;;;;;-0.65;100.00;99264.53;5031717;28;20053;-79
2021/01/01 02:22:26;;;;;;;12.18;2.83;;;;;;;-0.62;100.00;99269.19;5031285;28;20049;-78
2021/01/01 02:25:30;;;;;;;4.38;2.17;;;;;;;-0.59;100.00;99273.84;5031155;28;20080;-79
2021/01/01 02:28:34;;;;;;;15.35;3.13;;;;;;;-0.58;100.00;99263.66;5031499;28;20060;-80
2021/01/01 02:31:37;;;;;;;15.90;2.03;;;;;;;-0.57;100.00;99268.72;5030822;28;20073;-78
2021/01/01 02:34:41;;;;;;;6.75;1.58;;;;;;;-0.55;100.00;99263.59;5031360;28;20057;-79
2021/01/01 02:37:44;;;;;;;15.88;3.25;;;;;;;-0.52;100.00;99270.22;5034342;28;20052;-80
2021/01/01 02:40:47;;;;;;;36.65;5.22;;;;;;;-0.52;100.00;99268.22;5034723;28;20543;-79
2021/01/01 02:43:51;;;;;;;18.70;3.85;;;;;;;-0.54;100.00;99270.59;5034802;28;20065;-79
2021/01/01 02:47:00;;;;;;;9.98;3.65;;;;;;;-0.53;100.00;99266.69;5033362;28;20056;-78
2021/01/01 02:50:04;;;;;;;5.55;3.05;;;;;;;-0.52;100.00;99268.22;5034744;28;20052;-80
2021/01/01 02:53:07;;;;;;;27.88;4.72;;;;;;;-0.53;100.00;99272.16;5034455;28;20044;-80
2021/01/01 02:56:11;;;;;;;10.75;3.63;;;;;;;-0.55;100.00;99280.00;5034608;28;20052;-79
2021/01/01 02:59:15;;;;;;;26.20;3.00;;;;;;;-0.58;100.00;99289.03;5034410;28;20099;-80
2021/01/01 03:02:18;;;;;;;9.73;2.95;;;;;;;-0.59;100.00;99278.53;5021887;28;20068;-80
2021/01/01 03:05:21;;;;;;;7.03;3.45;;;;;;;-0.61;100.00;99280.91;5034049;28;20512;-80
2021/01/01 03:08:25;;;;;;;12.68;2.70;;;;;;;-0.61;100.00;99281.69;5034276;28;20133;-80
2021/01/01 03:11:28;;;;;;;15.57;2.72;;;;;;;-0.62;100.00;99291.06;5034204;28;20049;-80
2021/01/01 03:14:31;;;;;;;16.13;3.58;;;;;;;-0.60;100.00;99276.97;5034088;28;20060;-80
2021/01/01 03:17:34;;;;;;;21.30;4.57;;;;;;;-0.59;100.00;99281.25;5034262;28;20048;-80
2021/01/01 03:20:38;;;;;;;10.65;4.22;;;;;;;-0.59;100.00;99284.78;5034127;28;20049;-80
2021/01/01 03:23:41;;;;;;;16.85;3.35;;;;;;;-0.58;100.00;99285.53;5033972;28;20592;-80
2021/01/01 03:26:44;;;;;;;11.50;3.10;;;;;;;-0.56;100.00;99289.38;5034036;28;20053;-79
2021/01/01 03:29:48;;;;;;;3.63;2.15;;;;;;;-0.55;100.00;99290.94;5021634;28;20064;-79
2021/01/01 03:32:51;;;;;;;30.50;5.20;;;;;;;-0.54;100.00;99281.53;5033767;28;20048;-80
2021/01/01 03:35:55;;;;;;;10.30;3.92;;;;;;;-0.53;100.00;99282.31;5033723;28;20064;-80
2021/01/01 03:38:59;;;;;;;13.40;4.13;;;;;;;-0.54;100.00;99289.00;5033646;28;20044;-80
2021/01/01 03:42:02;;;;;;;4.68;1.88;;;;;;;-0.55;100.00;99293.69;5033582;28;20105;-79
2021/01/01 03:45:07;;;;;;;13.35;3.13;;;;;;;-0.55;100.00;99290.94;5033852;28;20386;-80
2021/01/01 03:48:10;;;;;;;17.77;3.78;;;;;;;-0.64;100.00;99276.25;5033302;28;20405;-80
2021/01/01 03:51:14;;;;;;;4.57;2.08;;;;;;;-0.68;100.00;99281.00;5033617;28;20048;-80
2021/01/01 03:54:17;;;;;;;15.52;4.57;;;;;;;-0.74;100.00;99283.44;5033649;28;20072;-80
2021/01/01 03:57:20;;;;;;;4.57;2.92;;;;;;;-0.81;100.00;99286.28;5033232;28;20064;-80
2021/01/01 04:00:23;;;;;;;5.05;2.60;;;;;;;-0.86;100.00;99286.72;5033494;28;20052;-80
2021/01/01 04:03:27;;;;;;;27.63;4.75;;;;;;;-0.85;100.00;99296.50;5033176;28;20512;-80
2021/01/01 04:06:30;;;;;;;5.68;2.20;;;;;;;-0.82;100.00;99299.16;5033509;28;20069;-80
2021/01/01 04:09:33;;;;;;;8.40;2.67;;;;;;;-0.77;100.00;99295.19;5032850;28;20057;-80
2021/01/01 04:12:37;;;;;;;7.80;3.03;;;;;;;-0.73;100.00;99287.72;5033302;28;20397;-80
2021/01/01 04:15:40;;;;;;;14.73;5.45;;;;;;;-0.69;100.00;99296.63;5033603;28;20048;-80
2021/01/01 04:18:44;;;;;;;43.70;5.55;;;;;;;-0.65;100.00;99297.34;5032815;28;20068;-80
2021/01/01 04:21:48;;;;;;;4.63;2.10;;;;;;;-0.60;100.00;99302.34;5032342;28;20397;-79
2021/01/01 04:24:51;;;;;;;23.05;4.10;;;;;;;-0.60;100.00;99288.69;5032553;28;20052;-80
2021/01/01 04:27:55;;;;;;;4.68;3.15;;;;;;;-0.54;100.00;99297.94;5031915;28;20056;-79
2021/01/01 04:30:58;;;;;;;15.50;2.42;;;;;;;-0.53;100.00;99299.50;5032687;28;20056;-80
2021/01/01 04:34:03;;;;;;;9.23;4.13;;;;;;;-0.52;100.00;99295.56;5032676;28;20512;-80
2021/01/01 04:37:07;;;;;;;15.77;3.97;;;;;;;-0.49;100.00;99305.69;5032601;28;20045;-80
2021/01/01 04:40:10;;;;;;;18.10;5.50;;;;;;;-0.51;100.00;99297.13;5032123;28;20060;-80
2021/01/01 04:43:14;;;;;;;2.50;1.73;;;;;;;-0.48;100.00;99295.53;5032576;28;20049;-80
2021/01/01 04:46:18;;;;;;;9.18;2.67;;;;;;;-0.47;100.00;99302.53;5032713;28;20135;-80
2021/01/01 04:49:22;;;;;;;9.80;3.50;;;;;;;-0.47;100.00;99297.06;5032335;28;20056;-80
2021/01/01 04:52:31;;;;;;;13.10;3.20;;;;;;;-0.48;100.00;99301.00;5032567;28;20060;-81
2021/01/01 04:55:36;;;;;;;18.90;5.22;;;;;;;-0.48;100.00;99298.28;5020183;28;20060;-80
2021/01/01 04:58:39;;;;;;;36.38;4.53;;;;;;;-0.49;100.00;99300.22;5031806;28;20397;-80
2021/01/01 05:01:44;;;;;;;15.00;2.25;;;;;;;-0.50;100.00;99309.63;5032416;28;20389;-79
2021/01/01 05:04:48;;;;;;;7.78;2.35;;;;;;;-0.53;100.00;99304.97;5032376;28;20056;-80
2021/01/01 05:07:52;;;;;;;5.65;4.03;;;;;;;-0.54;100.00;99308.13;5032459;28;20104;-79
2021/01/01 05:10:55;;;;;;;18.08;5.57;;;;;;;-0.51;100.00;99319.00;5032375;28;20052;-80
2021/01/01 05:14:00;;;;;;;10.80;3.10;;;;;;;-0.47;100.00;99316.22;5032168;28;20049;-79
2021/01/01 05:17:04;;;;;;;14.60;3.90;;;;;;;-0.45;100.00;99316.56;5032159;28;20048;-80
2021/01/01 05:20:09;;;;;;;12.63;3.92;;;;;;;-0.44;100.00;99318.13;5032308;28;20052;-79
2021/01/01 05:23:23;;;;;;;14.98;4.78;;;;;;;-0.42;100.00;99322.00;5031780;28;20069;-79
2021/01/01 05:26:28;;;;;;;14.70;2.92;;;;;;;-0.40;100.00;99319.63;5032174;28;20053;-79
2021/01/01 05:29:38;;;;;;;11.05;3.83;;;;;;;-0.39;100.00;99321.16;5032009;28;20064;-79
2021/01/01 05:32:52;;;;;;;4.68;2.83;;;;;;;-0.36;100.00;99325.81;5031875;28;20052;-79
2021/01/01 05:36:05;;;;;;;13.98;4.28;;;;;;;-0.37;100.00;99318.03;5031940;28;20405;-79
2021/01/01 05:39:18;;;;;;;13.52;2.75;;;;;;;-0.35;100.00;99321.13;5031864;28;20056;-79
2021/01/01 05:42:22;;;;;;;9.63;2.95;;;;;;;-0.32;100.00;99325.75;5019850;28;20496;-80
2021/01/01 05:45:26;;;;;;;18.00;5.00;;;;;;;-0.32;100.00;99326.53;5031666;28;20064;-79
2021/01/01 05:48:29;;;;;;;31.02;4.57;;;;;;;-0.30;100.00;99329.63;5031865;28;20056;-79
2021/01/01 05:51:33;;;;;;;27.50;4.78;;;;;;;-0.30;100.00;99326.88;5031861;28;20049;-79
2021/01/01 05:54:39;;;;;;;21.50;5.53;;;;;;;-0.27;100.00;99319.81;5031880;28;20068;-79
2021/01/01 05:57:43;;;;;;;7.22;4.47;;;;;;;-0.25;100.00;99329.16;5031733;28;20045;-79
2021/01/01 06:00:52;;;;;;;12.00;4.38;;;;;;;-0.21;100.00;99334.56;5031765;28;20058;-79
2021/01/01 06:03:56;;;;;;;7.40;3.15;;;;;;;-0.19;100.00;99329.44;5031411;28;20064;-79
2021/01/01 06:07:02;;;;;;;9.60;3.95;;;;;;;-0.20;100.00;99327.91;5031728;28;20053;-80
2021/01/01 06:10:08;;;;;;;14.05;2.88;;;;;;;-0.19;100.00;99334.91;5031669;28;20052;-79
2021/01/01 06:13:11;;;;;;;9.13;3.72;;;;;;;-0.18;100.00;99337.25;5035181;28;20060;-79
2021/01/01 06:16:23;;;;;;;21.40;4.55;;;;;;;-0.18;100.00;99342.72;5035595;28;20052;-79
2021/01/01 06:19:54;;;;;;;17.63;3.80;;;;;;;-0.16;100.00;99339.56;5035552;28;20048;-79
2021/01/01 06:23:08;;;;;;;10.52;2.97;;;;;;;-0.17;100.00;99338.00;5034952;28;20068;-79
2021/01/01 06:26:12;;;;;;;9.93;4.00;;;;;;;-0.15;100.00;99352.03;5035124;28;20099;-78
2021/01/01 06:29:18;;;;;;;7.35;3.03;;;;;;;-0.16;100.00;99354.03;5034831;28;20052;-79
2021/01/01 06:32:21;;;;;;;12.00;2.67;;;;;;;-0.15;100.00;99357.50;5034933;28;20056;-79
2021/01/01 06:35:25;;;;;;;27.90;4.95;;;;;;;-0.16;100.00;99362.22;5034859;28;20049;-79
2021/01/01 06:38:36;;;;;;;23.88;5.28;;;;;;;-0.19;100.00;99368.53;5034993;28;20100;-79
2021/01/01 06:41:45;;;;;;;14.52;5.38;;;;;;;-0.23;100.00;99365.06;5035029;28;20052;-78
2021/01/01 06:44:49;;;;;;;10.13;4.57;;;;;;;-0.26;100.00;99365.13;5034548;28;20061;-79
2021/01/01 06:47:52;;;;;;;5.80;3.35;;;;;;;-0.29;100.00;99366.75;5033705;28;20057;-79
2021/01/01 06:50:55;;;;;;;23.13;3.22;;;;;;;-0.34;100.00;99367.19;5034133;28;20058;-80
2021/01/01 06:54:17;;;;;;;10.48;5.13;;;;;;;-0.37;100.00;99365.28;5034798;28;20041;-79
2021/01/01 06:57:25;;;;;;;10.60;3.63;;;;;;;-0.37;100.00;99365.28;5034917;28;20512;-79
2021/01/01 07:00:44;;;;;;;16.38;4.60;;;;;;;-0.39;100.00;99370.38;5034416;28;20076;-79
2021/01/01 07:03:52;;;;;;;33.53;5.10;;;;;;;-0.37;100.00;99384.44;5034425;28;20052;-78
2021/01/01 07:06:56;;;;;;;12.98;3.80;;;;;;;-0.30;100.00;99383.53;5034436;28;20044;-79
2021/01/01 07:09:59;;;;;;;16.30;4.50;;;;;;;-0.26;100.00;99385.03;5034402;28;20053;-79
2021/01/01 07:13:16;;;;;;;18.85;5.35;;;;;;;-0.23;100.00;99392.44;5034235;28;20433;-79
2021/01/01 07:16:21;;;;;;;30.65;4.65;;;;;;;-0.21;100.00;99395.53;5034140;28;20056;-79
2021/01/01 07:19:29;;;;;;;10.98;2.97;;;;;;;-0.19;100.00;99395.09;5034427;28;20049;-79
2021/01/01 07:22:32;;;;;;;4.82;2.83;;;;;;;-0.25;100.00;99397.53;5033519;28;20052;-79
2021/01/01 07:25:39;;;;;;;12.57;4.60;;;;;;;-0.26;100.00;99398.72;5034286;28;20057;-79
2021/01/01 07:28:46;;;;;;;11.48;4.15;;;;;;;-0.22;100.00;99407.66;5033769;28;20501;-79
2021/01/01 07:31:52;;;;;;;6.25;2.42;;;;;;;-0.17;100.00;99403.66;5034221;28;20512;-79
2021/01/01 07:34:55;;;;;;;12.30;5.53;;;;;;;-0.21;100.00;99401.00;5021696;28;20060;-79
2021/01/01 07:38:00;;;;;;;14.05;5.07;;;;;;;-0.27;100.00;99421.03;5033960;28;20053;-79
2021/01/01 07:41:04;;;;;;;5.05;2.65;;;;;;;-0.30;100.00;99427.31;5033841;28;20496;-79
2021/01/01 07:44:08;;;;;;;11.68;4.55;;;;;;;-0.36;100.00;99424.28;5033816;28;20053;-78
2021/01/01 07:47:12;;;;;;;15.68;4.28;;;;;;;-0.38;100.00;99429.38;5033687;28;20052;-78
2021/01/01 07:50:17;;;;;;;8.45;3.63;;;;;;;-0.38;100.00;99432.13;5033456;28;20504;-79
2021/01/01 07:53:20;;;;;;;28.02;5.70;;;;;;;-0.39;100.00;99436.03;5032807;28;20052;-78
2021/01/01 07:56:24;;;;;;;37.75;4.80;;;;;;;-0.40;100.00;99429.03;5033427;28;20520;-78
2021/01/01 07:59:27;;;;;;;24.30;4.60;;;;;;;-0.38;100.00;99432.13;5033365;28;20053;-79
2021/01/01 08:02:31;;;;;;;4.40;3.30;;;;;;;-0.36;100.00;99429.75;5033070;28;20052;-79
2021/01/01 08:05:36;;;;;;;20.52;3.65;;;;;;;-0.38;100.00;99437.59;5033221;28;20053;-79
2021/01/01 08:08:39;;;;;;;10.70;4.20;;;;;;;-0.39;100.00;99436.03;5033133;28;20056;-79
2021/01/01 08:11:43;;;;;;;27.50;5.03;;;;;;;-0.38;100.00;99437.59;5041714;28;20052;-79
2021/01/01 08:14:50;;;;;;;13.50;5.15;;;;;;;-0.35;100.00;99447.72;5042912;28;20112;-79
2021/01/01 08:17:54;;;;;;;7.80;4.80;;;;;;;-0.32;100.00;99449.63;5033493;28;20053;-78
2021/01/01 08:20:59;;;;;;;15.38;4.80;;;;;;;-0.29;100.00;99451.53;5032655;28;20048;-79
2021/01/01 08:24:07;;;;;;;6.93;3.15;;;;;;;-0.26;100.00;99456.16;5032542;28;20049;-79
2021/01/01 08:27:12;;;;;;;18.85;5.53;;;;;;;-0.23;100.00;99463.56;5032719;28;20386;-79
2021/01/01 08:30:16;;;;;;;10.07;4.07;;;;;;;-0.21;100.00;99458.47;5040526;28;20048;-78
2021/01/01 08:33:23;;;;;;;8.52;2.88;;;;;;;-0.18;100.00;99463.13;5040912;28;20053;-79
2021/01/01 08:36:37;;;;;;;6.97;4.00;;;;;;;-0.13;100.00;99470.09;5042901;28;20508;-78
2021/01/01 08:39:41;;;;;;;17.17;3.63;;;;;;;-0.10;100.00;99461.03;5042840;28;20211;-78
2021/01/01 08:42:44;;;;;;;12.98;3.20;;;;;;;-0.07;100.00;99463.75;5042711;28;20052;-79
2021/01/01 08:45:48;;;;;;;15.85;4.10;;;;;;;-0.04;100.00;99479.31;5038345;28;20508;-78
2021/01/01 08:48:52;;;;;;;25.90;6.68;;;;;;;-0.03;100.00;99480.09;5039212;28;20052;-79
2021/01/01 08:51:55;;;;;;;14.98;4.80;;;;;;;-0.01;100.00;99483.97;5040044;28;20064;-78
2021/01/01 08:54:59;;;;;;;8.63;4.05;;;;;;;0.03;100.00;99481.16;5041187;28;20045;-79
2021/01/01 08:58:11;;;;;;;18.08;3.88;;;;;;;0.07;100.00;99486.59;5042383;28;20056;-78
2021/01/01 09:01:16;;;;;;;24.83;5.63;;;;;;;0.08;100.00;99479.94;5039484;28;20053;-79
2021/01/01 09:04:24;;;;;;;7.43;4.03;;;;;;;0.07;100.00;99492.06;5041559;28;20056;-78
2021/01/01 09:07:27;;;;;;;10.15;3.30;;;;;;;0.10;100.00;99488.50;5042505;28;20056;-79
2021/01/01 09:10:31;;;;;;;17.42;5.45;;;;;;;0.12;100.00;99491.59;5042140;28;20052;-79
2021/01/01 09:13:34;;;;;;;8.10;3.50;;;;;;;0.11;100.00;99479.13;5039473;28;20057;-77
2021/01/01 09:16:38;;;;;;;18.25;5.35;;;;;;;0.08;100.00;99474.47;5041001;28;20056;-78
2021/01/01 09:19:41;;;;;;;10.63;4.35;;;;;;;0.00;100.00;99487.50;5018617;28;20084;-79
2021/01/01 09:22:45;;;;;;;22.23;5.60;;;;;;;-0.10;100.00;99486.44;5052082;28;20732;-79
2021/01/01 09:25:48;;;;;;;4.30;2.60;;;;;;;-0.21;100.00;99485.81;5052081;28;20052;-78
2021/01/01 09:29:08;;;;;;;6.90;3.33;;;;;;;-0.25;100.00;99487.03;5030837;28;20048;-78
2021/01/01 09:32:12;;;;;;;11.98;4.68;;;;;;;-0.29;100.00;99495.31;5018004;28;20061;-76
2021/01/01 09:35:16;;;;;;;12.15;4.68;;;;;;;-0.35;100.00;99496.97;5016630;28;20053;-77
2021/01/01 09:38:20;;;;;;;13.02;6.18;;;;;;;-0.43;100.00;99502.91;5026543;28;20409;-77
2021/01/01 09:41:23;;;;;;;18.85;3.85;;;;;;;-0.37;100.00;99509.50;5031117;28;20056;-76
2021/01/01 09:44:27;;;;;;;10.40;3.85;;;;;;;-0.29;100.00;99506.25;5031442;28;20044;-77
2021/01/01 09:47:30;;;;;;;18.02;5.93;;;;;;;-0.22;100.00;99506.13;5043535;28;20048;-77
2021/01/01 09:50:34;;;;;;;12.45;5.00;;;;;;;-0.12;100.00;99516.19;5025533;28;20057;-77
2021/01/01 09:53:37;;;;;;;13.68;5.47;;;;;;;0.00;100.00;99521.09;5034321;28;20516;-77
2021/01/01 09:56:40;;;;;;;22.17;5.35;;;;;;;0.15;100.00;99523.63;5035615;28;20076;-77
2021/01/01 09:59:44;;;;;;;14.55;5.47;;;;;;;0.30;100.00;99511.28;5035581;28;20048;-77
2021/01/01 10:02:47;;;;;;;11.45;4.72;;;;;;;0.42;100.00;99510.69;5035133;28;20052;-77
2021/01/01 10:05:50;;;;;;;20.35;4.25;;;;;;;0.53;100.00;99509.34;5020855;28;20049;-76
2021/01/01 10:08:53;;;;;;;4.80;1.77;;;;;;;0.65;100.00;99524.41;5021741;28;20057;-76
2021/01/01 10:11:57;;;;;;;5.95;1.70;;;;;;;0.74;100.00;99517.19;5033227;28;20056;-77
2021/01/01 10:15:00;;;;;;;9.02;2.53;;;;;;;0.81;100.00;99521.78;5023283;28;20397;-79
2021/01/01 10:18:04;;;;;;;4.63;2.60;;;;;;;0.92;100.00;99533.34;5036063;28;20137;-79
2021/01/01 10:21:08;;;;;;;5.75;2.08;;;;;;;1.04;100.00;99529.22;5042305;28;20064;-85
2021/01/01 10:24:12;;;;;;;5.97;2.70;;;;;;;1.17;100.00;99536.41;5045359;28;20064;-83
2021/01/01 10:27:16;;;;;;;8.07;2.22;;;;;;;1.35;100.00;99534.09;5039580;28;20060;-84
2021/01/01 10:30:20;;;;;;;7.03;2.85;;;;;;;1.42;100.00;99539.47;5041850;28;20052;-84
2021/01/01 10:33:24;;;;;;;4.75;3.08;;;;;;;1.40;100.00;99541.84;5042741;28;20060;-83
2021/01/01 10:36:28;;;;;;;13.90;2.42;;;;;;;1.47;100.00;99535.47;5055674;28;20068;-83
2021/01/01 10:39:31;;;;;;;5.18;2.00;;;;;;;1.56;100.00;99543.13;5057537;28;20048;-82
2021/01/01 10:42:35;;;;;;;9.18;3.20;;;;;;;1.54;100.00;99544.31;5050915;28;20405;-79
2021/01/01 10:45:38;;;;;;;7.75;2.35;;;;;;;1.61;100.00;99539.88;5044284;28;20053;-84
2021/01/01 10:48:42;;;;;;;5.88;1.63;;;;;;;1.64;100.00;99539.03;5024760;28;20406;-80
2021/01/01 10:51:45;;;;;;;9.13;2.50;;;;;;;1.66;100.00;99539.38;5014389;28;20052;-81
2021/01/01 10:54:48;;;;;;;8.23;2.45;;;;;;;1.67;100.00;99544.44;5015183;28;20497;-81
2021/01/01 10:57:52;;;;;;;6.35;2.55;;;;;;;1.73;100.00;99542.78;5014157;28;20453;-81
2021/01/01 11:00:56;;;;;;;3.65;1.13;;;;;;;1.75;100.00;99545.09;5014878;28;20045;-81
2021/01/01 11:03:59;;;;;;;4.18;1.83;;;;;;;1.80;100.00;99541.84;5014791;28;20501;-81
2021/01/01 11:07:03;;;;;;;16.35;3.85;;;;;;;1.86;100.00;99545.63;5014902;28;20073;-81
2021/01/01 11:10:06;;;;;;;8.02;3.22;;;;;;;1.88;100.00;99537.75;5014124;28;20061;-81
2021/01/01 11:13:10;;;;;;;5.22;2.80;;;;;;;1.93;100.00;99534.47;5014059;28;20048;-81
2021/01/01 12:21:07;;;;;;;4.53;3.00;;;;;;;1.64;100.00;99550.00;5055695;28;20055;-81
2021/01/01 12:27:20;;;;;;;3.33;2.05;;;;;;;1.76;100.00;99546.63;5053058;28;20063;-80
2021/01/01 12:30:25;;;;;;;7.35;2.78;;;;;;;1.82;100.00;99536.72;5053342;28;20099;-80
2021/01/01 12:33:29;;;;;;;5.07;1.52;;;;;;;1.88;100.00;99537.75;5052789;28;20052;-80
2021/01/01 12:36:33;;;;;;;3.30;1.73;;;;;;;1.85;100.00;99538.59;5052930;28;20060;-79
2021/01/01 12:39:36;;;;;;;1.35;1.25;;;;;;;1.81;100.00;99538.66;5052675;28;20060;-80
2021/01/01 12:42:40;;;;;;;3.40;1.02;;;;;;;1.81;100.00;99537.91;5053356;28;20509;-80
2021/01/01 12:45:44;;;;;;;7.28;1.98;;;;;;;1.79;100.00;99532.06;5052219;28;20056;-79
2021/01/01 12:48:48;;;;;;;3.80;1.13;;;;;;;1.78;100.00;99533.25;5012757;28;20533;-79
2021/01/01 12:51:53;;;;;;;7.65;1.25;;;;;;;1.77;100.00;99535.22;5000807;28;20076;-77
2021/01/01 12:54:56;;;;;;;1.05;0.70;;;;;;;1.77;100.00;99537.19;5012621;28;20057;-79
2021/01/01 12:58:04;;;;;;;6.03;1.75;;;;;;;1.77;100.00;99539.94;5000491;28;20053;-79
2021/01/01 13:01:07;;;;;;;3.85;1.27;;;;;;;1.79;100.00;99535.56;5012944;28;20057;-78
2021/01/01 13:04:11;;;;;;;20.23;3.30;;;;;;;1.80;100.00;99541.84;5013195;28;20053;-77
2021/01/01 13:07:14;;;;;;;2.22;1.52;;;;;;;1.81;100.00;99538.66;5012484;28;20053;-78
2021/01/01 13:10:17;;;;;;;3.85;1.20;;;;;;;1.80;100.00;99536.38;5012177;28;20057;-78
2021/01/01 13:13:22;;;;;;;6.18;2.08;;;;;;;1.80;100.00;99533.63;5011944;28;20053;-78
2021/01/01 13:16:27;;;;;;;1.13;0.77;;;;;;;1.83;100.00;99535.50;5011835;28;20061;-77
2021/01/01 13:19:31;;;;;;;1.80;1.10;;;;;;;1.84;100.00;99540.56;5011830;28;20061;-78
2021/01/01 13:22:34;;;;;;;2.53;1.45;;;;;;;1.91;100.00;99536.88;5012505;28;20501;-79
2021/01/01 13:25:38;;;;;;;2.97;0.65;;;;;;;1.94;100.00;99525.84;5012039;28;20057;-78
2021/01/01 13:28:41;;;;;;;1.17;1.08;;;;;;;1.98;100.00;99534.00;5011982;28;20056;-78
2021/01/01 13:31:45;;;;;;;1.58;0.50;;;;;;;2.08;100.00;99531.00;5011512;28;20077;-78
2021/01/01 13:34:48;;;;;;;1.20;1.10;;;;;;;2.17;100.00;99522.97;5012289;28;20057;-78
2021/01/01 13:37:52;;;;;;;0.90;0.50;;;;;;;2.22;100.00;99524.44;5011877;28;20254;-78
2021/01/01 13:40:56;;;;;;;0.80;0.52;;;;;;;2.22;100.00;99529.94;5012258;28;20498;-79
2021/01/01 13:44:00;;;;;;;1.90;1.17;;;;;;;2.22;100.00;99529.94;5012028;28;20053;-79
2021/01/01 13:47:04;;;;;;;6.53;1.35;;;;;;;2.22;100.00;99529.94;5019759;28;20044;-79
2021/01/01 13:50:09;;;;;;;0.45;0.45;;;;;;;2.20;100.00;99533.09;5031457;28;20151;-78
2021/01/01 13:53:13;;;;;;;0.73;0.60;;;;;;;2.23;100.00;99536.97;5031653;28;20053;-78
2021/01/01 13:56:16;;;;;;;12.82;1.98;;;;;;;2.22;100.00;99535.41;5031922;28;20703;-78
2021/01/01 13:59:20;;;;;;;16.98;3.80;;;;;;;2.19;100.00;99541.75;5030631;28;20512;-77
2021/01/01 14:02:24;;;;;;;22.00;5.25;;;;;;;2.18;100.00;99538.25;5031492;28;20052;-78
2021/01/01 14:05:28;;;;;;;12.13;4.00;;;;;;;2.16;100.00;99537.91;5031823;28;20068;-79
2021/01/01 14:08:32;;;;;;;15.88;2.20;;;;;;;2.16;100.00;99548.13;5031404;28;20053;-79
2021/01/01 14:11:35;;;;;;;2.75;1.52;;;;;;;2.15;100.00;99546.56;5031626;28;20527;-79
2021/01/01 14:14:38;;;;;;;7.32;1.30;;;;;;;2.11;100.00;99545.88;5031494;28;20048;-78
2021/01/01 14:17:42;;;;;;;2.92;1.15;;;;;;;2.07;100.00;99551.44;5030176;28;20050;-79
2021/01/01 14:20:47;;;;;;;2.90;1.92;;;;;;;2.04;100.00;99557.00;5031168;28;20072;-78
2021/01/01 14:23:51;;;;;;;3.65;1.33;;;;;;;2.00;100.00;99561.78;5031508;28;20053;-78
2021/01/01 14:26:54;;;;;;;2.38;1.80;;;;;;;1.98;100.00;99561.44;5031507;28;20412;-79
2021/01/01 14:29:57;;;;;;;3.70;1.40;;;;;;;2.00;100.00;99567.28;5031234;28;20512;-78
2021/01/01 14:33:01;;;;;;;3.72;1.80;;;;;;;2.01;100.00;99568.84;5033471;28;20052;-78
2021/01/01 14:36:05;;;;;;;1.33;1.05;;;;;;;1.98;100.00;99559.50;5034732;28;20492;-78
2021/01/01 14:39:09;;;;;;;8.57;1.40;;;;;;;1.97;100.00;99573.66;5035154;28;20048;-78
2021/01/01 14:42:13;;;;;;;0.60;0.60;;;;;;;1.95;100.00;99570.56;5035440;28;20052;-81
2021/01/01 14:45:16;;;;;;;1.98;0.90;;;;;;;1.92;100.00;99572.19;5035543;28;20048;-77
2021/01/01 14:48:20;;;;;;;7.30;1.48;;;;;;;1.94;100.00;99574.47;5034100;28;20056;-81
2021/01/01 14:51:23;;;;;;;1.75;1.17;;;;;;;1.91;100.00;99575.31;5019639;28;20064;-79
2021/01/01 14:54:28;;;;;;;1.42;0.98;;;;;;;1.89;100.00;99577.72;5034450;28;20057;-81
2021/01/01 14:57:31;;;;;;;2.38;0.98;;;;;;;1.87;100.00;99574.63;5034513;28;20639;-81
2021/01/01 15:00:35;;;;;;;1.85;0.90;;;;;;;1.89;100.00;99588.69;5033931;28;20052;-85
2021/01/01 15:03:41;;;;;;;0.80;0.80;;;;;;;1.88;100.00;99589.91;5021368;28;20044;-80
2021/01/01 15:06:45;;;;;;;1.65;0.73;;;;;;;1.90;100.00;99590.25;5033086;28;20048;-79
2021/01/01 15:09:48;;;;;;;2.22;1.27;;;;;;;1.88;100.00;99598.16;5035478;28;20052;-79
2021/01/01 15:12:51;;;;;;;2.67;0.65;;;;;;;1.86;100.00;99598.59;5034805;28;20048;-80
2021/01/01 15:15:55;;;;;;;2.17;1.27;;;;;;;1.84;100.00;99597.44;5034614;28;20499;-79
2021/01/01 15:18:58;;;;;;;1.00;0.90;;;;;;;1.81;100.00;99603.78;5034362;28;20064;-78
2021/01/01 15:22:02;;;;;;;5.88;1.23;;;;;;;1.80;100.00;99615.97;5034584;28;20496;-77
2021/01/01 15:25:06;;;;;;;4.93;1.33;;;;;;;1.80;100.00;99618.72;5033266;28;20052;-82